Time;durP1;ratioP1;P1;durP2;ratioP2;P2;SDS_P1;SDS_P2;PMS_P1;PMS_P2;Temp;Humidity;BMP_temperature;BMP_pressure;BME280_temperature;BME280_humidity;BME280_pressure;Samples;Min_cycle;Max_cycle;Signal;HPM_P1;HPM_P2
2023/01/10 00:00:39;;;;;;;2.90;1.70;;;;;;;7.03;98.30;97781.19;4992325;23;20204;-92
2023/01/10 00:02:43;;;;;;;1.83;1.33;;;;;;;7.02;98.53;97786.44;5017249;23;20205;-91
2023/01/10 00:04:46;;;;;;;1.73;1.05;;;;;;;7.06;98.90;97786.19;4992480;23;20213;-92
2023/01/10 00:06:50;;;;;;;2.45;1.23;;;;;;;7.05;98.58;97785.34;5017182;23;20222;-91
2023/01/10 00:08:53;;;;;;;2.20;1.17;;;;;;;7.11;97.76;97792.78;5017221;23;20182;-91
2023/01/10 00:10:56;;;;;;;1.48;1.08;;;;;;;7.14;98.09;97800.38;5016890;23;20181;-91
2023/01/10 00:15:20;;;;;;;1.75;1.10;;;;;;;7.18;97.77;97801.81;5016160;23;20606;-91
2023/01/10 00:17:23;;;;;;;1.30;1.00;;;;;;;7.23;98.64;97807.59;5015965;23;20626;-92
2023/01/10 00:19:26;;;;;;;0.90;0.80;;;;;;;7.26;97.73;97814.34;5015472;23;20215;-91
2023/01/10 00:21:30;;;;;;;1.55;1.10;;;;;;;7.28;97.62;97810.75;4992610;23;20244;-90
2023/01/10 00:23:35;;;;;;;1.67;1.10;;;;;;;7.29;98.19;97820.19;5017914;23;20211;-92
2023/01/10 00:25:38;;;;;;;2.25;0.90;;;;;;;7.24;96.78;97824.81;5017836;23;20181;-92
2023/01/10 00:27:41;;;;;;;2.38;1.40;;;;;;;7.25;96.85;97834.25;4991522;23;20272;-91
2023/01/10 00:29:45;;;;;;;1.30;0.95;;;;;;;7.28;97.37;97826.31;5015680;23;20182;-91
2023/01/10 00:31:48;;;;;;;2.20;1.42;;;;;;;7.30;96.77;97821.84;5014857;23;20268;-90
2023/01/10 00:33:51;;;;;;;1.90;1.35;;;;;;;7.31;98.02;97833.06;4991991;23;20182;-91
2023/01/10 00:35:54;;;;;;;2.63;1.42;;;;;;;7.34;95.88;97845.88;5015881;23;20528;-91
2023/01/10 00:38:00;;;;;;;1.88;1.45;;;;;;;7.35;96.02;97843.19;4992091;23;20182;-91
2023/01/10 00:40:08;;;;;;;2.42;1.55;;;;;;;7.37;96.66;97851.69;5039815;23;20188;-91
2023/01/10 00:44:32;;;;;;;1.85;1.30;;;;;;;7.42;96.19;97854.84;5015137;23;20569;-91
2023/01/10 00:46:35;;;;;;;2.00;1.70;;;;;;;7.42;95.50;97854.00;5015511;23;20500;-89
2023/01/10 00:48:38;;;;;;;2.00;1.50;;;;;;;7.45;96.42;97859.00;4992396;23;20264;-92
2023/01/10 00:50:42;;;;;;;1.80;1.50;;;;;;;7.48;96.23;97861.44;4992750;23;20185;-92
2023/01/10 00:52:45;;;;;;;2.05;1.60;;;;;;;7.48;95.71;97864.03;5014447;23;20179;-91
2023/01/10 00:54:48;;;;;;;2.35;1.60;;;;;;;7.49;95.55;97876.91;5039667;23;20590;-91
2023/01/10 00:56:52;;;;;;;1.60;1.50;;;;;;;7.51;96.20;97878.47;4991994;23;20225;-91
2023/01/10 00:58:55;;;;;;;3.03;1.63;;;;;;;7.53;96.59;97880.97;5015507;23;20184;-92
2023/01/10 01:00:58;;;;;;;2.30;1.80;;;;;;;7.54;96.70;97873.09;5015070;23;20181;-91
2023/01/10 01:03:02;;;;;;;2.30;1.80;;;;;;;7.56;95.28;97880.78;5015610;23;20185;-90
2023/01/10 01:05:06;;;;;;;1.60;1.50;;;;;;;7.57;95.26;97892.84;4991993;23;20193;-91
2023/01/10 01:07:10;;;;;;;3.63;2.10;;;;;;;7.58;95.50;97897.94;5015627;23;20216;-91
2023/01/10 01:09:13;;;;;;;2.25;1.75;;;;;;;7.61;96.23;97894.34;4991748;23;20185;-91
2023/01/10 01:11:16;;;;;;;2.25;1.73;;;;;;;7.63;95.38;97897.66;4992090;23;20191;-91
2023/01/10 01:13:21;;;;;;;2.90;2.35;;;;;;;7.61;95.64;97902.13;5012833;23;20224;-91
2023/01/10 01:15:25;;;;;;;3.47;2.30;;;;;;;7.61;96.95;97905.53;5014658;23;20189;-91
2023/01/10 01:17:28;;;;;;;2.00;1.80;;;;;;;7.61;95.37;97909.91;5016953;23;20173;-90
2023/01/10 01:19:31;;;;;;;3.78;2.20;;;;;;;7.62;97.22;97898.56;4992187;23;20189;-90
2023/01/10 01:21:34;;;;;;;2.45;1.92;;;;;;;7.61;95.73;97909.91;5039388;23;20547;-90
2023/01/10 01:23:37;;;;;;;3.83;2.30;;;;;;;7.61;96.11;97909.91;4991967;23;20260;-90
2023/01/10 01:25:41;;;;;;;5.18;3.00;;;;;;;7.60;95.98;97916.84;5015404;23;20184;-91
2023/01/10 01:27:44;;;;;;;3.95;2.42;;;;;;;7.58;96.15;97923.88;5015482;23;20302;-91
2023/01/10 01:29:48;;;;;;;2.33;2.10;;;;;;;7.57;96.78;97924.81;5016926;23;20181;-89
2023/01/10 01:31:51;;;;;;;3.60;2.97;;;;;;;7.60;96.75;97936.78;5015179;23;20617;-91
2023/01/10 01:33:54;;;;;;;2.72;2.30;;;;;;;7.59;97.35;97932.50;5014696;23;20607;-91
2023/01/10 01:35:57;;;;;;;4.10;2.55;;;;;;;7.62;96.06;97942.69;5016368;23;20209;-91
2023/01/10 01:38:01;;;;;;;3.88;2.80;;;;;;;7.64;95.81;97946.88;5015411;23;20184;-91
2023/01/10 01:40:05;;;;;;;3.97;2.75;;;;;;;7.63;96.87;97957.34;4992127;23;20282;-90
2023/01/10 01:42:20;;;;;;;3.55;2.72;;;;;;;7.62;96.68;97960.84;5014814;23;20181;-91
2023/01/10 01:44:24;;;;;;;3.80;2.42;;;;;;;7.60;97.18;97962.72;5038427;23;20165;-91
2023/01/10 01:46:29;;;;;;;3.70;2.70;;;;;;;7.60;96.47;97967.91;5016211;23;20536;-90
2023/01/10 01:48:35;;;;;;;3.72;2.75;;;;;;;7.60;97.31;97976.50;5016557;23;20261;-90
2023/01/10 01:50:41;;;;;;;3.58;2.97;;;;;;;7.63;97.14;97978.09;5015398;23;20267;-91
2023/01/10 01:52:45;;;;;;;3.30;2.75;;;;;;;7.62;96.66;97987.66;5016225;23;20564;-90
2023/01/10 01:54:48;;;;;;;3.88;2.78;;;;;;;7.57;97.03;97988.84;5014774;23;20177;-90
2023/01/10 01:56:54;;;;;;;3.80;3.10;;;;;;;7.54;97.51;98004.59;5014115;23;20182;-90
2023/01/10 01:58:59;;;;;;;3.38;3.08;;;;;;;7.54;97.69;98009.78;5015911;23;20693;-90
2023/01/10 02:01:02;;;;;;;3.92;3.20;;;;;;;7.55;97.56;98001.06;5013984;23;20914;-90
2023/01/10 02:03:07;;;;;;;4.93;3.10;;;;;;;7.51;97.41;98009.94;4992246;23;20191;-91
2023/01/10 02:05:13;;;;;;;4.22;2.90;;;;;;;7.53;98.38;98021.06;5017297;23;20821;-90
2023/01/10 02:07:16;;;;;;;4.93;3.25;;;;;;;7.56;96.76;98023.50;4991577;23;20210;-91
2023/01/10 02:09:24;;;;;;;3.40;3.00;;;;;;;7.54;97.87;98025.34;4992586;23;20188;-90
2023/01/10 02:11:27;;;;;;;4.95;3.40;;;;;;;7.53;98.21;98018.47;5015805;23;20546;-90
2023/01/10 02:13:30;;;;;;;2.90;2.58;;;;;;;7.53;97.81;98027.13;5016287;23;20784;-91
2023/01/10 02:15:33;;;;;;;3.03;2.60;;;;;;;7.49;97.33;98027.38;4992397;23;20678;-90
2023/01/10 02:17:37;;;;;;;3.30;2.78;;;;;;;7.47;97.93;98036.97;5017921;23;20230;-90
2023/01/10 02:19:50;;;;;;;3.28;2.45;;;;;;;7.44;98.38;98033.75;5040703;23;20284;-90
2023/01/10 02:22:41;;;;;;;2.72;2.53;;;;;;;7.45;96.96;98041.44;5015335;23;20248;-90
2023/01/10 02:25:34;;;;;;;3.60;2.55;;;;;;;7.45;97.10;98031.06;5014924;23;20237;-91
2023/01/10 02:27:43;;;;;;;3.47;2.47;;;;;;;7.42;97.39;98033.00;5017004;23;20190;-90
2023/01/10 02:30:31;;;;;;;3.05;2.13;;;;;;;7.42;96.90;98041.59;4992590;23;20186;-91
2023/01/10 02:32:41;;;;;;;2.78;1.70;;;;;;;7.44;96.55;98044.13;5016156;23;20184;-91
2023/01/10 02:35:10;;;;;;;2.50;1.75;;;;;;;7.44;95.61;98042.34;5017920;23;20173;-90
2023/01/10 02:37:16;;;;;;;2.45;1.90;;;;;;;7.40;96.61;98048.66;5015658;23;20173;-90
2023/01/10 02:39:24;;;;;;;2.70;2.05;;;;;;;7.39;95.60;98061.72;5013037;23;20556;-91
2023/01/10 02:41:31;;;;;;;2.10;1.70;;;;;;;7.35;96.54;98061.06;5016795;23;20591;-90
2023/01/10 02:43:35;;;;;;;1.77;1.50;;;;;;;7.32;96.73;98066.41;4992612;23;20185;-90
2023/01/10 02:45:41;;;;;;;3.42;1.65;;;;;;;7.31;97.10;98066.50;5015278;23;20187;-90
2023/01/10 02:47:46;;;;;;;1.63;1.38;;;;;;;7.29;97.06;98071.78;5017175;23;20289;-90
2023/01/10 02:49:51;;;;;;;2.22;1.90;;;;;;;7.29;97.29;98073.50;5039796;23;20237;-91
2023/01/10 02:51:54;;;;;;;2.83;1.83;;;;;;;7.29;97.93;98076.97;4992530;23;20637;-91
2023/01/10 02:54:00;;;;;;;1.45;1.35;;;;;;;7.27;98.09;98089.16;5039729;23;20697;-90
2023/01/10 02:56:25;;;;;;;2.20;1.38;;;;;;;7.26;98.53;98102.19;4992469;23;20201;-90
2023/01/10 02:58:40;;;;;;;3.85;1.77;;;;;;;7.25;98.71;98109.16;5015857;23;20268;-90
2023/01/10 03:00:46;;;;;;;2.10;1.48;;;;;;;7.25;97.76;98111.75;5017569;23;20177;-90
2023/01/10 03:03:01;;;;;;;3.35;2.17;;;;;;;7.25;97.81;98106.56;5015858;23;20175;-91
2023/01/10 03:05:12;;;;;;;2.40;1.65;;;;;;;7.25;98.84;98111.75;5016248;23;20187;-89
2023/01/10 03:07:19;;;;;;;2.58;1.95;;;;;;;7.28;98.83;98113.34;5015560;23;20182;-89
2023/01/10 03:09:27;;;;;;;2.55;2.20;;;;;;;7.25;98.68;98126.50;5017361;23;20189;-89
2023/01/10 03:11:41;;;;;;;2.20;1.77;;;;;;;7.25;98.14;98126.50;5015996;23;20222;-89
2023/01/10 03:13:48;;;;;;;3.08;1.63;;;;;;;7.25;98.05;98135.09;5015571;23;20188;-90
2023/01/10 03:15:53;;;;;;;1.83;1.55;;;;;;;7.25;99.34;98137.69;4990596;23;20185;-90
2023/01/10 03:17:59;;;;;;;1.95;1.70;;;;;;;7.24;98.68;98128.22;5015888;23;20226;-90
2023/01/10 03:20:05;;;;;;;3.28;1.80;;;;;;;7.24;99.30;98130.81;5016098;23;20231;-89
2023/01/10 03:22:10;;;;;;;1.95;1.50;;;;;;;7.25;98.53;98136.84;4991956;23;20194;-90
2023/01/10 03:24:17;;;;;;;3.03;1.80;;;;;;;7.25;98.01;98142.03;5015951;23;20177;-90
2023/01/10 03:26:27;;;;;;;2.10;1.90;;;;;;;7.26;97.83;98157.53;5017682;23;20235;-90
2023/01/10 03:28:32;;;;;;;2.20;2.00;;;;;;;7.28;97.60;98154.84;5038826;23;20195;-89
2023/01/10 03:30:39;;;;;;;2.20;2.00;;;;;;;7.28;99.13;98163.44;5015294;23;20610;-89
2023/01/10 03:32:42;;;;;;;3.35;1.55;;;;;;;7.33;98.67;98168.41;5015848;23;20240;-89
2023/01/10 03:34:47;;;;;;;2.22;1.88;;;;;;;7.33;97.74;98182.19;4992333;23;20192;-90
2023/01/10 03:36:54;;;;;;;2.55;1.80;;;;;;;7.32;98.27;98188.31;5015421;23;20200;-89
2023/01/10 03:39:02;;;;;;;2.40;2.10;;;;;;;7.33;98.86;98191.75;5016544;23;20185;-89
2023/01/10 03:41:09;;;;;;;3.13;1.77;;;;;;;7.31;97.39;98191.81;5015103;23;20637;-89
2023/01/10 03:45:41;;;;;;;3.50;2.00;;;;;;;7.35;98.13;98201.13;5015018;23;20240;-89
2023/01/10 03:47:46;;;;;;;3.33;2.40;;;;;;;7.34;96.68;98196.00;4991502;23;20657;-90
2023/01/10 03:49:55;;;;;;;2.80;1.88;;;;;;;7.31;96.22;98204.78;5015152;23;20188;-89
2023/01/10 03:51:58;;;;;;;3.50;2.05;;;;;;;7.27;96.01;98203.25;5014940;23;20535;-90
2023/01/10 03:54:02;;;;;;;4.78;2.00;;;;;;;7.26;96.09;98211.13;4990820;23;20197;-90
2023/01/10 03:56:06;;;;;;;2.80;1.70;;;;;;;7.20;96.49;98214.91;5014774;23;20628;-90
2023/01/10 03:58:09;;;;;;;2.80;1.73;;;;;;;7.17;96.92;98211.63;5015286;23;20186;-89
2023/01/10 04:00:13;;;;;;;1.80;1.50;;;;;;;7.27;96.58;98225.78;4991673;23;20546;-90
2023/01/10 04:02:17;;;;;;;2.85;2.17;;;;;;;7.24;95.49;98228.53;5016332;23;20237;-89
2023/01/10 04:04:20;;;;;;;4.05;1.40;;;;;;;7.21;96.85;98239.06;5016892;23;20552;-90
2023/01/10 04:06:24;;;;;;;4.05;1.83;;;;;;;7.21;96.31;98249.44;5016285;23;20180;-89
2023/01/10 04:08:27;;;;;;;4.78;1.67;;;;;;;7.17;95.87;98241.00;5016723;23;20204;-90
2023/01/10 04:10:30;;;;;;;5.00;1.60;;;;;;;7.18;95.32;98252.19;5015727;23;20629;-89
2023/01/10 04:12:33;;;;;;;3.28;1.80;;;;;;;7.15;94.66;98253.19;5015243;23;20217;-90
2023/01/10 04:14:36;;;;;;;2.70;1.42;;;;;;;7.19;94.29;98259.91;5015295;23;20233;-90
2023/01/10 04:16:39;;;;;;;3.15;1.60;;;;;;;7.20;94.68;98261.59;5016016;23;20213;-89
2023/01/10 04:18:42;;;;;;;4.75;1.63;;;;;;;7.19;95.67;98262.50;5014734;23;20177;-90
2023/01/10 04:20:45;;;;;;;2.33;1.52;;;;;;;7.19;95.03;98262.50;5016220;23;20179;-91
2023/01/10 04:22:50;;;;;;;1.92;1.48;;;;;;;7.19;93.70;98269.44;5015801;23;20598;-90
2023/01/10 04:24:53;;;;;;;9.48;2.13;;;;;;;7.18;95.59;98278.97;4991371;23;20186;-91
2023/01/10 04:26:56;;;;;;;3.38;1.65;;;;;;;7.21;94.48;98270.19;5015425;23;20247;-90
2023/01/10 04:28:59;;;;;;;3.30;1.58;;;;;;;7.20;95.82;98279.75;4992011;23;20205;-89
2023/01/10 04:31:02;;;;;;;3.25;1.48;;;;;;;7.23;95.08;98282.16;5013871;23;20212;-88
2023/01/10 04:33:06;;;;;;;4.85;1.75;;;;;;;7.25;95.43;98292.47;5014380;23;20174;-90
2023/01/10 04:35:09;;;;;;;3.75;1.67;;;;;;;7.26;94.37;98294.13;5014001;23;20186;-89
2023/01/10 04:37:12;;;;;;;3.15;1.60;;;;;;;7.29;94.54;98305.19;5014903;23;20268;-90
2023/01/10 04:39:17;;;;;;;4.15;1.60;;;;;;;7.32;95.66;98311.97;5015162;23;20643;-90
2023/01/10 04:41:20;;;;;;;3.83;1.77;;;;;;;7.35;95.54;98317.84;5014896;23;20214;-90
2023/01/10 04:43:24;;;;;;;2.72;1.70;;;;;;;7.39;95.27;98327.13;5015437;23;20181;-90
2023/01/10 04:45:27;;;;;;;3.70;1.60;;;;;;;7.42;95.99;98328.75;4990655;23;20287;-90
2023/01/10 04:47:30;;;;;;;5.80;2.10;;;;;;;7.44;95.30;98330.31;5038195;23;20593;-90
2023/01/10 04:49:33;;;;;;;3.70;1.85;;;;;;;7.45;95.63;98334.59;5015394;23;20255;-89
2023/01/10 04:51:36;;;;;;;4.80;1.75;;;;;;;7.46;95.55;98341.47;5014206;23;20184;-89
2023/01/10 04:53:39;;;;;;;6.72;2.00;;;;;;;7.45;95.57;98352.75;4991265;23;20216;-90
2023/01/10 04:55:43;;;;;;;3.08;2.00;;;;;;;7.41;95.43;98338.25;5015346;23;20232;-90
2023/01/10 04:57:46;;;;;;;4.45;2.33;;;;;;;7.44;95.25;98356.25;5039637;23;20232;-90
2023/01/10 04:59:49;;;;;;;2.25;2.05;;;;;;;7.47;94.65;98350.06;5016272;23;20627;-88
2023/01/10 05:01:52;;;;;;;7.72;2.40;;;;;;;7.44;95.31;98355.44;4991422;23;20261;-89
2023/01/10 05:03:56;;;;;;;4.78;2.33;;;;;;;7.41;94.64;98351.22;5016950;23;20206;-90
2023/01/10 05:05:59;;;;;;;4.30;2.40;;;;;;;7.44;93.98;98363.22;5015977;23;20183;-90
2023/01/10 05:08:02;;;;;;;4.20;2.42;;;;;;;7.39;94.91;98363.44;4991987;23;20178;-89
2023/01/10 05:10:06;;;;;;;5.10;2.53;;;;;;;7.34;94.62;98360.25;5015899;23;20656;-90
2023/01/10 05:12:11;;;;;;;4.93;3.10;;;;;;;7.32;95.24;98358.66;5014706;23;20557;-90
2023/01/10 05:14:14;;;;;;;9.90;3.13;;;;;;;7.27;95.43;98365.84;5015930;23;20591;-89
2023/01/10 05:16:17;;;;;;;6.00;2.55;;;;;;;7.27;95.30;98377.03;5037821;23;20288;-89
2023/01/10 05:18:20;;;;;;;5.78;3.25;;;;;;;7.20;94.46;98375.69;5014091;23;20511;-90
2023/01/10 05:20:23;;;;;;;6.68;2.95;;;;;;;7.19;94.70;98380.97;5017238;23;20180;-89
2023/01/10 05:22:27;;;;;;;5.50;2.85;;;;;;;7.21;94.79;98385.13;5039381;23;20175;-89
2023/01/10 05:24:30;;;;;;;3.70;2.35;;;;;;;7.20;94.84;98383.47;5014397;23;20656;-90
2023/01/10 05:26:33;;;;;;;5.60;2.65;;;;;;;7.21;94.34;98386.91;5017663;23;20179;-90
2023/01/10 05:28:38;;;;;;;6.72;3.15;;;;;;;7.20;94.38;98392.97;5015352;23;20177;-89
2023/01/10 05:30:41;;;;;;;4.18;2.63;;;;;;;7.13;95.21;98395.06;5014490;23;20186;-88
2023/01/10 05:32:44;;;;;;;5.00;3.05;;;;;;;7.13;96.02;98391.63;5013786;23;20899;-90
2023/01/10 05:34:47;;;;;;;8.57;3.13;;;;;;;7.12;95.38;98400.31;4991808;23;20185;-89
2023/01/10 05:36:50;;;;;;;5.72;2.88;;;;;;;7.13;95.52;98400.25;5015643;23;20660;-91
2023/01/10 05:38:53;;;;;;;5.30;2.72;;;;;;;7.14;95.66;98404.53;5016101;23;20179;-90
2023/01/10 05:40:57;;;;;;;4.32;3.15;;;;;;;7.13;94.17;98412.38;4991443;23;20635;-91
2023/01/10 05:43:01;;;;;;;7.90;2.95;;;;;;;7.14;94.98;98424.41;5013266;23;20210;-91
2023/01/10 05:45:06;;;;;;;5.93;2.90;;;;;;;7.10;94.18;98415.94;5039760;23;20221;-88
2023/01/10 05:47:09;;;;;;;7.30;3.10;;;;;;;7.12;94.49;98421.06;5016870;23;20230;-89
2023/01/10 05:49:12;;;;;;;6.05;3.00;;;;;;;7.11;94.10;98419.38;4993218;23;20205;-90
2023/01/10 05:51:15;;;;;;;7.20;2.47;;;;;;;7.09;94.31;98424.63;5018293;23;20628;-89
2023/01/10 05:53:18;;;;;;;8.20;3.00;;;;;;;7.12;94.72;98429.66;5017023;23;20235;-90
2023/01/10 05:55:21;;;;;;;14.05;4.22;;;;;;;7.10;94.72;98425.50;5017047;23;20583;-90
2023/01/10 05:57:24;;;;;;;8.40;2.92;;;;;;;7.10;94.40;98426.31;5016185;23;20189;-90
2023/01/10 05:59:27;;;;;;;6.10;2.97;;;;;;;7.05;94.67;98430.91;5016748;23;20259;-90
2023/01/10 06:01:32;;;;;;;6.07;2.75;;;;;;;7.06;94.31;98437.75;5016386;23;20281;-89
2023/01/10 06:03:35;;;;;;;5.95;2.90;;;;;;;7.09;95.66;98441.97;5016902;23;20200;-90
2023/01/10 06:05:38;;;;;;;7.90;2.83;;;;;;;7.10;94.42;98443.66;5017366;23;20233;-90
2023/01/10 06:07:41;;;;;;;6.60;2.90;;;;;;;7.08;95.06;98450.63;5018681;23;20540;-90
2023/01/10 06:09:45;;;;;;;9.88;3.17;;;;;;;7.07;95.75;98448.97;5016555;23;20203;-90
2023/01/10 06:11:48;;;;;;;8.52;4.38;;;;;;;7.06;93.97;98452.47;5017757;23;20187;-90
2023/01/10 06:13:54;;;;;;;7.88;3.00;;;;;;;7.06;94.92;98452.47;4991757;23;20184;-93
2023/01/10 06:15:57;;;;;;;6.90;2.80;;;;;;;7.06;95.47;98455.06;4992744;23;20226;-91
2023/01/10 06:18:02;;;;;;;7.05;2.88;;;;;;;7.06;94.37;98457.66;5015158;23;20178;-91
2023/01/10 06:20:06;;;;;;;9.35;3.40;;;;;;;7.10;95.02;98461.81;4991235;23;20204;-90
2023/01/10 06:22:09;;;;;;;8.77;3.92;;;;;;;7.08;94.09;98455.81;4990278;23;20215;-90
2023/01/10 06:24:12;;;;;;;7.50;3.05;;;;;;;7.04;94.16;98464.69;4991881;23;20189;-90
2023/01/10 06:26:15;;;;;;;10.35;3.13;;;;;;;7.05;95.19;98477.56;4991665;23;20180;-91
2023/01/10 06:28:18;;;;;;;8.52;2.97;;;;;;;7.05;94.81;98482.75;4992600;23;20216;-91
2023/01/10 06:30:21;;;;;;;12.80;4.13;;;;;;;7.06;93.88;98484.41;4991987;23;20210;-90
2023/01/10 06:32:24;;;;;;;8.65;3.03;;;;;;;7.08;95.15;98487.81;4991725;23;20735;-91
2023/01/10 06:34:29;;;;;;;10.50;3.08;;;;;;;7.04;94.19;98480.25;4990141;23;20220;-89
2023/01/10 06:36:32;;;;;;;7.90;3.40;;;;;;;7.04;94.65;98483.66;4992414;23;20185;-90
2023/01/10 06:38:35;;;;;;;7.65;2.92;;;;;;;7.06;94.65;98491.38;5016483;23;20175;-91
2023/01/10 06:40:38;;;;;;;10.00;3.17;;;;;;;7.07;93.91;98485.28;4991769;23;20632;-91
2023/01/10 06:42:41;;;;;;;10.43;2.75;;;;;;;7.10;94.32;98490.31;4991225;23;20642;-92
2023/01/10 06:44:45;;;;;;;9.63;3.08;;;;;;;7.09;93.66;98499.00;4991684;23;20604;-93
2023/01/10 06:46:48;;;;;;;15.05;3.60;;;;;;;7.07;94.59;98503.44;5016070;23;20182;-91
2023/01/10 06:48:51;;;;;;;10.43;2.90;;;;;;;7.06;94.27;98512.94;5015670;23;20191;-90
2023/01/10 06:50:56;;;;;;;9.00;3.10;;;;;;;7.04;93.31;98512.19;4992368;23;20651;-91
2023/01/10 06:53:00;;;;;;;7.65;3.13;;;;;;;7.04;93.64;98517.38;5014068;23;20246;-91
2023/01/10 06:55:03;;;;;;;5.18;2.47;;;;;;;7.07;92.80;98514.63;4991444;23;20368;-90
2023/01/10 06:57:07;;;;;;;7.75;3.00;;;;;;;7.08;94.37;98518.91;5016242;23;20184;-91
2023/01/10 06:59:10;;;;;;;8.90;3.05;;;;;;;7.09;92.72;98522.34;4992394;23;20246;-91
2023/01/10 07:01:15;;;;;;;10.60;2.60;;;;;;;7.10;93.71;98527.44;5015443;23;20709;-91
2023/01/10 07:03:18;;;;;;;13.40;4.00;;;;;;;7.10;92.75;98527.44;5018163;23;20186;-90
2023/01/10 07:05:21;;;;;;;12.15;2.55;;;;;;;7.10;92.67;98532.63;5035770;23;20272;-90
2023/01/10 07:07:26;;;;;;;8.25;2.67;;;;;;;7.10;93.02;98532.63;5040537;23;20233;-90
2023/01/10 07:09:29;;;;;;;6.82;2.78;;;;;;;7.11;92.92;98536.94;4993090;23;20189;-91
2023/01/10 07:11:33;;;;;;;9.10;3.08;;;;;;;7.12;93.32;98541.16;5041854;23;20244;-91
2023/01/10 07:13:36;;;;;;;11.43;2.92;;;;;;;7.06;92.95;98540.63;5038998;23;20665;-91
2023/01/10 07:15:39;;;;;;;8.77;3.13;;;;;;;7.03;93.15;98531.22;5014447;23;20195;-90
2023/01/10 07:17:42;;;;;;;6.95;2.75;;;;;;;7.03;92.65;98532.16;5016257;23;20184;-91
2023/01/10 07:19:45;;;;;;;7.18;2.30;;;;;;;7.03;91.66;98539.94;5016295;23;20188;-91
2023/01/10 07:21:48;;;;;;;7.38;2.92;;;;;;;7.01;92.38;98541.78;5015037;23;20183;-90
2023/01/10 07:23:53;;;;;;;10.50;2.80;;;;;;;7.04;91.16;98545.06;5015805;23;20557;-90
2023/01/10 07:25:56;;;;;;;8.75;4.05;;;;;;;6.95;91.48;98553.28;5042640;23;20630;-91
2023/01/10 07:27:59;;;;;;;8.60;2.20;;;;;;;6.94;92.03;98563.72;5017195;23;20295;-91
2023/01/10 07:30:04;;;;;;;11.90;3.08;;;;;;;6.97;92.01;98576.53;5014781;23;20594;-90
2023/01/10 07:32:07;;;;;;;7.35;2.50;;;;;;;6.96;92.34;98582.63;4991537;23;20179;-90
2023/01/10 07:34:10;;;;;;;9.43;2.88;;;;;;;6.98;91.86;98581.66;5039711;23;20330;-91
2023/01/10 07:36:13;;;;;;;9.25;2.40;;;;;;;6.99;92.08;98585.06;5016217;23;20189;-91
2023/01/10 07:38:16;;;;;;;10.25;2.65;;;;;;;7.01;90.47;98588.44;5042015;23;20182;-92
2023/01/10 07:40:21;;;;;;;8.70;2.63;;;;;;;7.00;90.74;98594.53;5015401;23;20216;-90
2023/01/10 07:42:24;;;;;;;8.50;2.60;;;;;;;7.02;90.34;98610.84;5040849;23;20192;-92
2023/01/10 07:44:27;;;;;;;11.45;3.05;;;;;;;7.03;90.35;98606.44;5041985;23;20185;-91
2023/01/10 07:46:30;;;;;;;10.45;2.35;;;;;;;7.05;90.45;98604.63;4990366;23;20188;-91
2023/01/10 07:48:33;;;;;;;8.00;3.33;;;;;;;7.06;90.69;98598.50;5040182;23;20180;-90
2023/01/10 07:50:37;;;;;;;6.72;2.75;;;;;;;7.10;91.60;98601.81;5036024;23;20242;-89
2023/01/10 07:52:40;;;;;;;5.90;2.42;;;;;;;7.13;91.39;98606.88;5014139;23;20184;-89
2023/01/10 07:54:43;;;;;;;7.80;2.65;;;;;;;7.15;92.36;98607.63;4991118;23;20184;-89
2023/01/10 07:56:48;;;;;;;8.13;3.33;;;;;;;7.13;91.11;98617.25;4990355;23;20500;-90
2023/01/10 07:58:52;;;;;;;12.23;2.88;;;;;;;7.14;91.76;98624.94;5039849;23;20263;-90
2023/01/10 08:00:57;;;;;;;7.75;2.70;;;;;;;7.20;90.31;98645.41;4991257;23;20198;-90
2023/01/10 08:03:01;;;;;;;7.80;3.28;;;;;;;7.25;92.04;98645.19;5041470;23;20185;-90
2023/01/10 08:05:05;;;;;;;10.98;4.03;;;;;;;7.43;91.88;98654.69;5016911;23;20196;-90
2023/01/10 08:07:08;;;;;;;11.55;3.85;;;;;;;7.49;89.94;98660.47;5040822;23;20185;-90
2023/01/10 08:09:11;;;;;;;6.97;3.28;;;;;;;7.43;89.47;98658.16;5017731;23;20191;-90
2023/01/10 08:11:14;;;;;;;9.75;2.30;;;;;;;7.35;90.41;98646.44;5016748;23;20201;-91
2023/01/10 08:13:18;;;;;;;9.52;2.42;;;;;;;7.34;90.15;98653.38;4992838;23;20320;-95
2023/01/10 08:15:22;;;;;;;8.15;2.65;;;;;;;7.37;91.37;98652.41;4994558;23;20182;-92
2023/01/10 08:17:32;;;;;;;7.45;2.80;;;;;;;7.35;89.88;98656.81;4995558;23;20262;-96
2023/01/10 08:19:35;;;;;;;13.70;3.17;;;;;;;7.37;91.54;98660.19;5040248;23;20199;-89
2023/01/10 08:21:38;;;;;;;7.72;2.58;;;;;;;7.37;90.59;98655.84;5041535;23;20173;-90
2023/01/10 08:23:41;;;;;;;7.50;2.78;;;;;;;7.40;91.36;98660.06;4990895;23;20213;-95
2023/01/10 08:25:44;;;;;;;12.25;3.30;;;;;;;7.40;91.18;98650.50;5015201;23;20189;-92
2023/01/10 08:27:47;;;;;;;8.27;3.05;;;;;;;7.43;89.75;98659.88;5037308;23;20632;-89
2023/01/10 08:29:52;;;;;;;11.98;2.50;;;;;;;7.42;90.57;98660.81;5035061;23;20186;-88
2023/01/10 08:31:59;;;;;;;8.02;3.00;;;;;;;7.40;90.24;98675.63;5015194;23;20200;-92
2023/01/10 08:34:02;;;;;;;6.50;2.58;;;;;;;7.42;91.14;98671.19;4992201;23;20181;-90
2023/01/10 08:36:06;;;;;;;5.50;2.47;;;;;;;7.45;90.48;98689.22;4988709;23;20191;-89
2023/01/10 08:38:09;;;;;;;9.18;2.70;;;;;;;7.45;89.65;98689.22;5011345;23;20596;-90
2023/01/10 08:40:13;;;;;;;10.38;3.38;;;;;;;7.45;89.90;98687.44;5013521;23;20256;-91
2023/01/10 08:42:17;;;;;;;9.77;4.28;;;;;;;7.46;90.67;98686.56;5036440;23;20824;-91
2023/01/10 08:44:20;;;;;;;7.88;3.20;;;;;;;7.49;90.07;98694.19;5015162;23;20618;-91
2023/01/10 08:46:24;;;;;;;13.23;3.28;;;;;;;7.51;90.34;98711.34;4991512;23;20259;-89
2023/01/10 08:48:28;;;;;;;11.10;2.90;;;;;;;7.50;89.54;98704.50;5038333;23;20185;-91
2023/01/10 08:50:31;;;;;;;10.30;2.70;;;;;;;7.52;91.12;98709.63;5039861;23;20200;-89
2023/01/10 08:52:34;;;;;;;9.32;3.05;;;;;;;7.50;90.07;98701.03;5015387;23;20195;-92
2023/01/10 08:54:37;;;;;;;9.30;3.92;;;;;;;7.45;89.31;98690.03;5015868;23;20280;-91
2023/01/10 08:56:41;;;;;;;9.50;3.75;;;;;;;7.43;89.48;98689.28;5039701;23;20600;-89
2023/01/10 08:58:44;;;;;;;6.60;3.15;;;;;;;7.42;91.09;98684.16;5039417;23;20739;-92
2023/01/10 09:00:48;;;;;;;11.88;3.15;;;;;;;7.45;90.21;98690.03;5041382;23;20185;-90
2023/01/10 09:02:52;;;;;;;8.75;2.70;;;;;;;7.45;90.23;98695.22;5016911;23;20217;-92
2023/01/10 09:04:55;;;;;;;7.25;3.70;;;;;;;7.45;90.11;98713.41;5016762;23;20253;-90
2023/01/10 09:06:58;;;;;;;10.45;4.15;;;;;;;7.45;89.61;98721.19;5039195;23;20182;-91
2023/01/10 09:09:02;;;;;;;11.68;3.10;;;;;;;7.48;91.24;98715.84;4992348;23;20250;-90
2023/01/10 09:11:05;;;;;;;9.80;3.13;;;;;;;7.49;89.75;98730.53;5040351;23;20179;-91
2023/01/10 09:13:08;;;;;;;9.48;2.83;;;;;;;7.47;90.76;98734.09;5015416;23;20268;-91
2023/01/10 09:15:12;;;;;;;9.10;2.92;;;;;;;7.40;91.63;98725.75;5015378;23;20188;-90
2023/01/10 09:17:15;;;;;;;12.50;3.30;;;;;;;7.39;91.54;98728.41;4991431;23;20564;-91
2023/01/10 09:19:19;;;;;;;7.72;2.60;;;;;;;7.29;91.67;98733.19;5040095;23;20688;-90
2023/01/10 09:21:22;;;;;;;10.02;3.00;;;;;;;7.28;90.33;98734.09;4991546;23;20214;-90
2023/01/10 09:23:26;;;;;;;9.13;2.80;;;;;;;7.21;91.38;98730.06;5015445;23;20188;-91
2023/01/10 09:25:29;;;;;;;13.25;3.88;;;;;;;7.18;91.63;98732.81;5041018;23;20514;-89
2023/01/10 09:27:32;;;;;;;9.57;3.88;;;;;;;7.13;91.49;98739.94;5012752;23;20416;-89
2023/01/10 09:29:35;;;;;;;8.75;2.70;;;;;;;7.19;92.00;98747.47;5012556;23;20498;-89
2023/01/10 09:31:38;;;;;;;8.63;3.17;;;;;;;7.21;92.11;98753.41;5037863;23;20210;-92
2023/01/10 09:33:43;;;;;;;10.15;2.85;;;;;;;7.26;90.95;98754.06;5015078;23;20555;-90
2023/01/10 09:35:50;;;;;;;11.23;3.50;;;;;;;7.28;91.80;98760.03;5014458;23;20729;-91
2023/01/10 09:37:54;;;;;;;12.27;3.10;;;;;;;7.27;91.04;98760.91;5038644;23;20181;-91
2023/01/10 09:39:57;;;;;;;6.97;2.90;;;;;;;7.34;91.48;98770.13;5015112;23;20182;-91
2023/01/10 09:42:18;;;;;;;10.60;3.13;;;;;;;7.43;91.37;98774.91;5037015;23;20189;-91
2023/01/10 09:44:28;;;;;;;11.25;3.30;;;;;;;7.45;90.96;98770.47;5014672;23;20189;-90
2023/01/10 09:46:39;;;;;;;12.05;3.35;;;;;;;7.51;90.08;98778.00;5037005;23;20187;-91
2023/01/10 09:48:49;;;;;;;13.40;3.00;;;;;;;7.60;91.04;98777.56;5013918;23;20205;-91
2023/01/10 09:51:08;;;;;;;9.88;2.80;;;;;;;7.67;90.66;98789.38;5039620;23;20171;-92
2023/01/10 09:53:14;;;;;;;7.38;3.10;;;;;;;7.69;89.86;98777.97;5039075;23;20196;-90
2023/01/10 09:55:20;;;;;;;12.23;4.28;;;;;;;7.74;89.72;98782.97;5039827;23;20862;-92
2023/01/10 09:57:23;;;;;;;11.30;3.80;;;;;;;7.74;88.98;98785.56;4990390;23;20174;-91
2023/01/10 09:59:30;;;;;;;5.68;2.83;;;;;;;7.77;89.91;98786.28;5014831;23;20233;-91
2023/01/10 10:01:35;;;;;;;9.35;3.47;;;;;;;7.83;89.30;98788.56;5012653;23;20178;-91